sensor_id;sensor_type;location;lat;lon;timestamp;P1;durP1;ratioP1;P2;durP2;ratioP2
12024;SDS011;6073;53.230;10.444;2023-08-01T00:02:18;2.95;;;2.65;;
12024;SDS011;6073;53.230;10.444;2023-08-01T00:04:44;3.28;;;2.72;;
12024;SDS011;6073;53.230;10.444;2023-08-01T00:07:09;3.22;;;2.63;;
12024;SDS011;6073;53.230;10.444;2023-08-01T00:09:35;3.53;;;2.80;;
12024;SDS011;6073;53.230;10.444;2023-08-01T00:12:00;3.38;;;2.75;;
12024;SDS011;6073;53.230;10.444;2023-08-01T00:14:26;3.80;;;2.58;;
12024;SDS011;6073;53.230;10.444;2023-08-01T00:16:51;2.78;;;2.35;;
12024;SDS011;6073;53.230;10.444;2023-08-01T00:19:17;4.82;;;2.40;;
12024;SDS011;6073;53.230;10.444;2023-08-01T00:21:43;2.50;;;2.13;;
12024;SDS011;6073;53.230;10.444;2023-08-01T00:24:09;2.42;;;2.20;;
12024;SDS011;6073;53.230;10.444;2023-08-01T00:26:35;2.75;;;2.20;;
12024;SDS011;6073;53.230;10.444;2023-08-01T00:29:00;2.67;;;2.45;;
12024;SDS011;6073;53.230;10.444;2023-08-01T00:31:26;2.60;;;2.40;;
12024;SDS011;6073;53.230;10.444;2023-08-01T00:33:52;2.38;;;2.17;;
12024;SDS011;6073;53.230;10.444;2023-08-01T00:36:17;2.72;;;2.42;;
12024;SDS011;6073;53.230;10.444;2023-08-01T00:38:43;2.63;;;2.33;;
12024;SDS011;6073;53.230;10.444;2023-08-01T00:41:09;2.70;;;2.50;;
12024;SDS011;6073;53.230;10.444;2023-08-01T00:43:34;2.97;;;2.40;;
12024;SDS011;6073;53.230;10.444;2023-08-01T00:46:00;3.50;;;2.58;;
12024;SDS011;6073;53.230;10.444;2023-08-01T00:48:29;4.25;;;2.78;;
12024;SDS011;6073;53.230;10.444;2023-08-01T00:50:56;3.42;;;2.67;;
12024;SDS011;6073;53.230;10.444;2023-08-01T00:53:24;4.45;;;2.83;;
12024;SDS011;6073;53.230;10.444;2023-08-01T00:55:51;3.00;;;2.47;;
12024;SDS011;6073;53.230;10.444;2023-08-01T00:58:18;3.45;;;2.50;;
12024;SDS011;6073;53.230;10.444;2023-08-01T01:00:44;2.92;;;2.42;;
12024;SDS011;6073;53.230;10.444;2023-08-01T01:03:10;3.63;;;2.60;;
12024;SDS011;6073;53.230;10.444;2023-08-01T01:05:36;3.15;;;2.85;;
12024;SDS011;6073;53.230;10.444;2023-08-01T01:08:05;3.67;;;2.88;;
12024;SDS011;6073;53.230;10.444;2023-08-01T01:10:30;4.03;;;3.28;;
12024;SDS011;6073;53.230;10.444;2023-08-01T01:12:56;2.83;;;2.50;;
12024;SDS011;6073;53.230;10.444;2023-08-01T01:15:22;3.30;;;2.83;;
12024;SDS011;6073;53.230;10.444;2023-08-01T01:17:47;3.88;;;2.92;;
12024;SDS011;6073;53.230;10.444;2023-08-01T01:20:13;3.58;;;2.72;;
12024;SDS011;6073;53.230;10.444;2023-08-01T01:22:38;3.03;;;2.70;;
12024;SDS011;6073;53.230;10.444;2023-08-01T01:25:06;5.38;;;2.78;;
12024;SDS011;6073;53.230;10.444;2023-08-01T01:27:32;3.10;;;2.80;;
12024;SDS011;6073;53.230;10.444;2023-08-01T01:29:59;3.00;;;2.70;;
12024;SDS011;6073;53.230;10.444;2023-08-01T01:32:26;4.57;;;2.90;;
12024;SDS011;6073;53.230;10.444;2023-08-01T01:34:53;6.20;;;2.78;;
12024;SDS011;6073;53.230;10.444;2023-08-01T01:37:18;2.90;;;2.60;;
12024;SDS011;6073;53.230;10.444;2023-08-01T01:39:44;3.60;;;2.80;;
12024;SDS011;6073;53.230;10.444;2023-08-01T01:42:09;4.25;;;3.38;;
12024;SDS011;6073;53.230;10.444;2023-08-01T01:44:38;3.50;;;3.00;;
12024;SDS011;6073;53.230;10.444;2023-08-01T01:47:03;3.85;;;3.05;;
12024;SDS011;6073;53.230;10.444;2023-08-01T01:49:29;3.30;;;2.80;;
12024;SDS011;6073;53.230;10.444;2023-08-01T01:51:55;4.80;;;3.35;;
12024;SDS011;6073;53.230;10.444;2023-08-01T01:54:20;3.33;;;3.03;;
12024;SDS011;6073;53.230;10.444;2023-08-01T01:56:46;3.42;;;2.83;;
12024;SDS011;6073;53.230;10.444;2023-08-01T01:59:11;4.88;;;3.40;;
12024;SDS011;6073;53.230;10.444;2023-08-01T02:01:37;4.13;;;3.03;;
12024;SDS011;6073;53.230;10.444;2023-08-01T02:04:02;4.88;;;3.38;;
12024;SDS011;6073;53.230;10.444;2023-08-01T02:06:28;4.65;;;3.30;;
12024;SDS011;6073;53.230;10.444;2023-08-01T02:08:53;3.45;;;3.08;;
12024;SDS011;6073;53.230;10.444;2023-08-01T02:11:19;4.13;;;3.22;;
12024;SDS011;6073;53.230;10.444;2023-08-01T02:13:45;3.50;;;3.20;;
12024;SDS011;6073;53.230;10.444;2023-08-01T02:16:10;4.00;;;3.15;;
12024;SDS011;6073;53.230;10.444;2023-08-01T02:18:36;3.47;;;3.17;;
12024;SDS011;6073;53.230;10.444;2023-08-01T02:21:01;3.58;;;3.03;;
12024;SDS011;6073;53.230;10.444;2023-08-01T02:23:27;3.70;;;3.40;;
12024;SDS011;6073;53.230;10.444;2023-08-01T02:25:53;4.10;;;3.40;;
12024;SDS011;6073;53.230;10.444;2023-08-01T02:28:19;4.95;;;3.75;;
12024;SDS011;6073;53.230;10.444;2023-08-01T02:30:44;3.95;;;3.22;;
12024;SDS011;6073;53.230;10.444;2023-08-01T02:33:10;3.88;;;3.28;;
12024;SDS011;6073;53.230;10.444;2023-08-01T02:35:36;4.65;;;3.83;;
12024;SDS011;6073;53.230;10.444;2023-08-01T02:38:02;3.60;;;3.30;;
12024;SDS011;6073;53.230;10.444;2023-08-01T02:40:28;4.72;;;3.42;;
12024;SDS011;6073;53.230;10.444;2023-08-01T02:42:53;4.00;;;3.60;;
12024;SDS011;6073;53.230;10.444;2023-08-01T02:45:19;4.18;;;3.70;;
12024;SDS011;6073;53.230;10.444;2023-08-01T02:47:45;3.70;;;3.40;;
12024;SDS011;6073;53.230;10.444;2023-08-01T02:50:10;3.53;;;3.17;;
12024;SDS011;6073;53.230;10.444;2023-08-01T02:52:36;4.22;;;3.45;;
12024;SDS011;6073;53.230;10.444;2023-08-01T02:55:01;4.18;;;3.25;;
12024;SDS011;6073;53.230;10.444;2023-08-01T02:57:27;3.83;;;3.22;;
12024;SDS011;6073;53.230;10.444;2023-08-01T02:59:53;3.88;;;3.15;;
12024;SDS011;6073;53.230;10.444;2023-08-01T03:02:18;4.88;;;3.88;;
12024;SDS011;6073;53.230;10.444;2023-08-01T03:04:44;5.25;;;3.42;;
12024;SDS011;6073;53.230;10.444;2023-08-01T03:07:09;3.38;;;3.08;;
12024;SDS011;6073;53.230;10.444;2023-08-01T03:09:35;4.70;;;3.50;;
12024;SDS011;6073;53.230;10.444;2023-08-01T03:12:00;4.22;;;3.80;;
12024;SDS011;6073;53.230;10.444;2023-08-01T03:14:26;4.40;;;3.22;;
12024;SDS011;6073;53.230;10.444;2023-08-01T03:16:51;5.32;;;3.72;;
12024;SDS011;6073;53.230;10.444;2023-08-01T03:19:17;4.13;;;3.38;;
12024;SDS011;6073;53.230;10.444;2023-08-01T03:21:43;4.22;;;3.60;;
12024;SDS011;6073;53.230;10.444;2023-08-01T03:24:08;3.30;;;2.95;;
12024;SDS011;6073;53.230;10.444;2023-08-01T03:26:37;4.70;;;3.38;;
12024;SDS011;6073;53.230;10.444;2023-08-01T03:29:03;4.72;;;3.20;;
12024;SDS011;6073;53.230;10.444;2023-08-01T03:31:30;3.35;;;3.05;;
12024;SDS011;6073;53.230;10.444;2023-08-01T03:33:56;4.60;;;3.42;;
12024;SDS011;6073;53.230;10.444;2023-08-01T03:36:23;3.60;;;3.00;;
12024;SDS011;6073;53.230;10.444;2023-08-01T03:38:49;3.80;;;3.22;;
12024;SDS011;6073;53.230;10.444;2023-08-01T03:41:14;3.53;;;2.95;;
12024;SDS011;6073;53.230;10.444;2023-08-01T03:43:40;3.40;;;3.10;;
12024;SDS011;6073;53.230;10.444;2023-08-01T03:46:06;5.80;;;3.25;;
12024;SDS011;6073;53.230;10.444;2023-08-01T03:48:32;4.35;;;3.30;;
12024;SDS011;6073;53.230;10.444;2023-08-01T03:50:57;4.32;;;3.17;;
12024;SDS011;6073;53.230;10.444;2023-08-01T03:53:23;5.22;;;3.40;;
12024;SDS011;6073;53.230;10.444;2023-08-01T03:55:49;5.45;;;3.60;;
12024;SDS011;6073;53.230;10.444;2023-08-01T03:58:14;4.68;;;3.50;;
12024;SDS011;6073;53.230;10.444;2023-08-01T04:00:40;5.05;;;3.47;;
12024;SDS011;6073;53.230;10.444;2023-08-01T04:03:06;4.55;;;3.38;;
12024;SDS011;6073;53.230;10.444;2023-08-01T04:05:31;4.22;;;3.25;;
12024;SDS011;6073;53.230;10.444;2023-08-01T04:07:57;5.80;;;3.42;;
12024;SDS011;6073;53.230;10.444;2023-08-01T04:10:22;4.65;;;3.35;;
12024;SDS011;6073;53.230;10.444;2023-08-01T04:12:48;4.00;;;3.33;;
12024;SDS011;6073;53.230;10.444;2023-08-01T04:15:14;4.13;;;3.50;;
12024;SDS011;6073;53.230;10.444;2023-08-01T04:17:39;4.88;;;3.67;;
12024;SDS011;6073;53.230;10.444;2023-08-01T04:20:05;5.82;;;3.60;;
12024;SDS011;6073;53.230;10.444;2023-08-01T04:22:31;4.50;;;3.55;;
12024;SDS011;6073;53.230;10.444;2023-08-01T04:24:57;3.80;;;3.47;;
12024;SDS011;6073;53.230;10.444;2023-08-01T04:27:22;4.45;;;3.50;;
12024;SDS011;6073;53.230;10.444;2023-08-01T04:29:48;4.65;;;3.03;;
12024;SDS011;6073;53.230;10.444;2023-08-01T04:32:13;5.35;;;3.22;;
12024;SDS011;6073;53.230;10.444;2023-08-01T04:34:40;4.22;;;3.00;;
12024;SDS011;6073;53.230;10.444;2023-08-01T04:37:06;4.43;;;3.55;;
12024;SDS011;6073;53.230;10.444;2023-08-01T04:39:31;5.47;;;3.38;;
12024;SDS011;6073;53.230;10.444;2023-08-01T04:41:57;3.95;;;3.60;;
12024;SDS011;6073;53.230;10.444;2023-08-01T04:44:22;5.13;;;3.42;;
12024;SDS011;6073;53.230;10.444;2023-08-01T04:46:48;3.28;;;2.97;;
12024;SDS011;6073;53.230;10.444;2023-08-01T04:49:14;3.50;;;3.17;;
12024;SDS011;6073;53.230;10.444;2023-08-01T04:51:39;3.58;;;2.92;;
12024;SDS011;6073;53.230;10.444;2023-08-01T04:54:05;4.85;;;3.28;;
12024;SDS011;6073;53.230;10.444;2023-08-01T04:56:30;3.17;;;2.88;;
12024;SDS011;6073;53.230;10.444;2023-08-01T04:58:56;3.63;;;3.10;;
12024;SDS011;6073;53.230;10.444;2023-08-01T05:01:21;3.92;;;3.33;;
12024;SDS011;6073;53.230;10.444;2023-08-01T05:03:47;5.60;;;3.00;;
12024;SDS011;6073;53.230;10.444;2023-08-01T05:06:12;4.63;;;3.00;;
12024;SDS011;6073;53.230;10.444;2023-08-01T05:08:38;3.50;;;3.20;;
12024;SDS011;6073;53.230;10.444;2023-08-01T05:11:04;5.13;;;3.40;;
12024;SDS011;6073;53.230;10.444;2023-08-01T05:13:29;6.00;;;3.05;;
12024;SDS011;6073;53.230;10.444;2023-08-01T05:15:55;4.43;;;3.25;;
12024;SDS011;6073;53.230;10.444;2023-08-01T05:18:20;4.03;;;3.40;;
12024;SDS011;6073;53.230;10.444;2023-08-01T05:20:46;4.78;;;2.90;;
12024;SDS011;6073;53.230;10.444;2023-08-01T05:23:11;4.40;;;3.67;;
12024;SDS011;6073;53.230;10.444;2023-08-01T05:25:37;3.60;;;2.92;;
12024;SDS011;6073;53.230;10.444;2023-08-01T05:28:02;3.80;;;3.05;;
12024;SDS011;6073;53.230;10.444;2023-08-01T05:30:28;4.45;;;2.92;;
12024;SDS011;6073;53.230;10.444;2023-08-01T05:32:54;4.80;;;3.42;;
12024;SDS011;6073;53.230;10.444;2023-08-01T05:35:19;3.75;;;3.10;;
12024;SDS011;6073;53.230;10.444;2023-08-01T05:37:46;5.45;;;3.30;;
12024;SDS011;6073;53.230;10.444;2023-08-01T05:40:11;3.40;;;3.10;;
12024;SDS011;6073;53.230;10.444;2023-08-01T05:42:37;6.72;;;3.60;;
12024;SDS011;6073;53.230;10.444;2023-08-01T05:45:03;3.75;;;3.30;;
12024;SDS011;6073;53.230;10.444;2023-08-01T05:47:29;4.80;;;3.60;;
12024;SDS011;6073;53.230;10.444;2023-08-01T05:49:55;3.88;;;3.40;;
12024;SDS011;6073;53.230;10.444;2023-08-01T05:52:20;4.40;;;3.60;;
12024;SDS011;6073;53.230;10.444;2023-08-01T05:54:46;7.32;;;3.90;;
12024;SDS011;6073;53.230;10.444;2023-08-01T05:57:12;6.30;;;3.85;;
12024;SDS011;6073;53.230;10.444;2023-08-01T05:59:37;5.68;;;3.88;;
12024;SDS011;6073;53.230;10.444;2023-08-01T06:02:03;5.43;;;3.90;;
12024;SDS011;6073;53.230;10.444;2023-08-01T06:04:28;5.30;;;4.07;;
12024;SDS011;6073;53.230;10.444;2023-08-01T06:06:54;4.28;;;3.80;;
12024;SDS011;6073;53.230;10.444;2023-08-01T06:09:19;4.72;;;4.30;;
12024;SDS011;6073;53.230;10.444;2023-08-01T06:11:45;5.18;;;4.05;;
12024;SDS011;6073;53.230;10.444;2023-08-01T06:14:10;5.43;;;4.68;;
12024;SDS011;6073;53.230;10.444;2023-08-01T06:16:36;5.03;;;4.13;;
12024;SDS011;6073;53.230;10.444;2023-08-01T06:19:02;4.93;;;4.18;;
12024;SDS011;6073;53.230;10.444;2023-08-01T06:21:27;7.07;;;4.15;;
12024;SDS011;6073;53.230;10.444;2023-08-01T06:23:53;4.63;;;4.22;;
12024;SDS011;6073;53.230;10.444;2023-08-01T06:26:19;6.47;;;4.57;;
12024;SDS011;6073;53.230;10.444;2023-08-01T06:28:44;5.82;;;4.97;;
12024;SDS011;6073;53.230;10.444;2023-08-01T06:31:10;6.97;;;4.95;;
12024;SDS011;6073;53.230;10.444;2023-08-01T06:33:35;6.30;;;4.97;;
12024;SDS011;6073;53.230;10.444;2023-08-01T06:36:01;6.07;;;4.65;;
12024;SDS011;6073;53.230;10.444;2023-08-01T06:38:26;6.70;;;4.93;;
12024;SDS011;6073;53.230;10.444;2023-08-01T06:40:52;6.95;;;5.10;;
12024;SDS011;6073;53.230;10.444;2023-08-01T06:43:17;5.88;;;5.28;;
12024;SDS011;6073;53.230;10.444;2023-08-01T06:45:43;6.88;;;5.10;;
12024;SDS011;6073;53.230;10.444;2023-08-01T06:48:08;5.97;;;5.25;;
12024;SDS011;6073;53.230;10.444;2023-08-01T06:50:34;7.38;;;5.50;;
12024;SDS011;6073;53.230;10.444;2023-08-01T06:53:00;6.72;;;5.47;;
12024;SDS011;6073;53.230;10.444;2023-08-01T06:55:26;6.90;;;5.13;;
12024;SDS011;6073;53.230;10.444;2023-08-01T06:57:52;7.90;;;5.43;;
12024;SDS011;6073;53.230;10.444;2023-08-01T07:00:17;10.27;;;5.75;;
12024;SDS011;6073;53.230;10.444;2023-08-01T07:02:43;9.02;;;5.32;;
12024;SDS011;6073;53.230;10.444;2023-08-01T07:05:08;6.60;;;5.45;;
12024;SDS011;6073;53.230;10.444;2023-08-01T07:07:34;6.68;;;5.38;;
12024;SDS011;6073;53.230;10.444;2023-08-01T07:09:59;6.82;;;5.00;;
12024;SDS011;6073;53.230;10.444;2023-08-01T07:12:25;5.30;;;4.80;;
12024;SDS011;6073;53.230;10.444;2023-08-01T07:14:50;9.80;;;5.03;;
12024;SDS011;6073;53.230;10.444;2023-08-01T07:17:16;5.55;;;4.93;;
12024;SDS011;6073;53.230;10.444;2023-08-01T07:19:42;7.00;;;5.10;;
12024;SDS011;6073;53.230;10.444;2023-08-01T07:22:07;5.55;;;5.05;;
12024;SDS011;6073;53.230;10.444;2023-08-01T07:24:33;6.97;;;5.40;;
12024;SDS011;6073;53.230;10.444;2023-08-01T07:26:58;6.18;;;5.57;;
12024;SDS011;6073;53.230;10.444;2023-08-01T07:29:24;6.70;;;6.03;;
12024;SDS011;6073;53.230;10.444;2023-08-01T07:31:49;6.20;;;5.00;;
12024;SDS011;6073;53.230;10.444;2023-08-01T07:34:15;6.13;;;4.13;;
12024;SDS011;6073;53.230;10.444;2023-08-01T07:36:41;3.58;;;3.28;;
12024;SDS011;6073;53.230;10.444;2023-08-01T07:39:06;4.93;;;3.25;;
12024;SDS011;6073;53.230;10.444;2023-08-01T07:41:32;4.75;;;3.20;;
12024;SDS011;6073;53.230;10.444;2023-08-01T07:44:00;4.05;;;2.85;;
12024;SDS011;6073;53.230;10.444;2023-08-01T07:46:28;5.40;;;2.67;;
12024;SDS011;6073;53.230;10.444;2023-08-01T07:48:53;3.47;;;2.80;;
12024;SDS011;6073;53.230;10.444;2023-08-01T07:51:19;3.03;;;2.45;;
12024;SDS011;6073;53.230;10.444;2023-08-01T07:53:45;4.28;;;2.30;;
12024;SDS011;6073;53.230;10.444;2023-08-01T07:56:10;3.58;;;2.47;;
12024;SDS011;6073;53.230;10.444;2023-08-01T07:58:36;4.32;;;3.00;;
12024;SDS011;6073;53.230;10.444;2023-08-01T08:01:05;6.65;;;3.13;;
12024;SDS011;6073;53.230;10.444;2023-08-01T08:03:31;6.68;;;2.53;;
12024;SDS011;6073;53.230;10.444;2023-08-01T08:05:57;4.18;;;2.67;;
12024;SDS011;6073;53.230;10.444;2023-08-01T08:08:23;3.63;;;2.58;;
12024;SDS011;6073;53.230;10.444;2023-08-01T08:10:49;5.22;;;2.78;;
12024;SDS011;6073;53.230;10.444;2023-08-01T08:13:14;5.53;;;3.13;;
12024;SDS011;6073;53.230;10.444;2023-08-01T08:15:40;5.75;;;2.95;;
12024;SDS011;6073;53.230;10.444;2023-08-01T08:18:05;4.18;;;3.33;;
12024;SDS011;6073;53.230;10.444;2023-08-01T08:20:31;5.55;;;2.90;;
12024;SDS011;6073;53.230;10.444;2023-08-01T08:22:59;4.22;;;2.95;;
12024;SDS011;6073;53.230;10.444;2023-08-01T08:25:24;4.82;;;2.80;;
12024;SDS011;6073;53.230;10.444;2023-08-01T08:27:50;5.47;;;3.20;;
12024;SDS011;6073;53.230;10.444;2023-08-01T08:30:15;3.50;;;3.10;;
12024;SDS011;6073;53.230;10.444;2023-08-01T08:32:41;5.22;;;3.08;;
12024;SDS011;6073;53.230;10.444;2023-08-01T08:35:07;3.38;;;2.90;;
12024;SDS011;6073;53.230;10.444;2023-08-01T08:37:33;5.68;;;2.97;;
12024;SDS011;6073;53.230;10.444;2023-08-01T08:39:58;4.40;;;3.00;;
12024;SDS011;6073;53.230;10.444;2023-08-01T08:42:24;3.97;;;2.90;;
12024;SDS011;6073;53.230;10.444;2023-08-01T08:44:54;5.55;;;3.30;;
12024;SDS011;6073;53.230;10.444;2023-08-01T08:47:20;6.60;;;3.10;;
12024;SDS011;6073;53.230;10.444;2023-08-01T08:49:50;6.47;;;2.97;;
12024;SDS011;6073;53.230;10.444;2023-08-01T08:52:17;4.90;;;3.17;;
12024;SDS011;6073;53.230;10.444;2023-08-01T08:54:44;5.05;;;2.78;;
12024;SDS011;6073;53.230;10.444;2023-08-01T08:57:11;4.53;;;2.83;;
12024;SDS011;6073;53.230;10.444;2023-08-01T08:59:37;5.97;;;3.15;;
12024;SDS011;6073;53.230;10.444;2023-08-01T09:02:03;4.85;;;3.05;;
12024;SDS011;6073;53.230;10.444;2023-08-01T09:04:30;4.80;;;3.20;;
12024;SDS011;6073;53.230;10.444;2023-08-01T09:07:00;8.13;;;3.90;;
12024;SDS011;6073;53.230;10.444;2023-08-01T09:09:28;7.05;;;3.17;;
12024;SDS011;6073;53.230;10.444;2023-08-01T09:11:54;6.15;;;3.40;;
12024;SDS011;6073;53.230;10.444;2023-08-01T09:14:22;4.93;;;2.97;;
12024;SDS011;6073;53.230;10.444;2023-08-01T09:16:48;5.47;;;3.30;;
12024;SDS011;6073;53.230;10.444;2023-08-01T09:19:32;6.10;;;3.40;;
12024;SDS011;6073;53.230;10.444;2023-08-01T09:21:58;6.35;;;3.42;;
12024;SDS011;6073;53.230;10.444;2023-08-01T09:24:23;5.25;;;3.47;;
12024;SDS011;6073;53.230;10.444;2023-08-01T09:26:49;6.15;;;3.38;;
12024;SDS011;6073;53.230;10.444;2023-08-01T09:29:19;5.45;;;3.10;;
12024;SDS011;6073;53.230;10.444;2023-08-01T09:31:45;6.20;;;3.00;;
12024;SDS011;6073;53.230;10.444;2023-08-01T09:34:24;5.53;;;3.67;;
12024;SDS011;6073;53.230;10.444;2023-08-01T09:36:50;4.43;;;3.40;;
12024;SDS011;6073;53.230;10.444;2023-08-01T09:39:22;4.65;;;3.10;;
12024;SDS011;6073;53.230;10.444;2023-08-01T09:42:00;4.65;;;3.22;;
12024;SDS011;6073;53.230;10.444;2023-08-01T09:44:28;3.90;;;2.65;;
12024;SDS011;6073;53.230;10.444;2023-08-01T09:49:27;5.65;;;3.00;;
12024;SDS011;6073;53.230;10.444;2023-08-01T09:51:54;3.65;;;2.72;;
12024;SDS011;6073;53.230;10.444;2023-08-01T09:54:20;2.75;;;2.38;;
12024;SDS011;6073;53.230;10.444;2023-08-01T09:56:47;4.30;;;2.38;;
12024;SDS011;6073;53.230;10.444;2023-08-01T09:59:24;3.83;;;2.33;;
12024;SDS011;6073;53.230;10.444;2023-08-01T10:01:51;2.47;;;1.95;;
12024;SDS011;6073;53.230;10.444;2023-08-01T10:04:28;3.63;;;2.05;;
12024;SDS011;6073;53.230;10.444;2023-08-01T10:06:59;4.22;;;2.22;;
12024;SDS011;6073;53.230;10.444;2023-08-01T10:09:29;2.67;;;2.28;;
12024;SDS011;6073;53.230;10.444;2023-08-01T10:11:56;2.85;;;2.15;;
12024;SDS011;6073;53.230;10.444;2023-08-01T10:14:22;2.03;;;1.83;;
12024;SDS011;6073;53.230;10.444;2023-08-01T10:16:48;3.47;;;1.98;;
12024;SDS011;6073;53.230;10.444;2023-08-01T10:19:16;2.85;;;1.95;;
12024;SDS011;6073;53.230;10.444;2023-08-01T10:21:42;1.98;;;1.50;;
12024;SDS011;6073;53.230;10.444;2023-08-01T10:24:09;1.80;;;1.60;;
12024;SDS011;6073;53.230;10.444;2023-08-01T10:26:37;2.00;;;1.50;;
12024;SDS011;6073;53.230;10.444;2023-08-01T10:29:03;3.13;;;1.50;;
12024;SDS011;6073;53.230;10.444;2023-08-01T10:31:28;3.00;;;1.60;;
12024;SDS011;6073;53.230;10.444;2023-08-01T10:34:03;1.67;;;1.42;;
12024;SDS011;6073;53.230;10.444;2023-08-01T10:36:29;1.73;;;1.30;;
12024;SDS011;6073;53.230;10.444;2023-08-01T10:38:58;2.97;;;1.30;;
12024;SDS011;6073;53.230;10.444;2023-08-01T10:41:32;3.42;;;1.60;;
12024;SDS011;6073;53.230;10.444;2023-08-01T10:49:17;4.80;;;1.83;;
12024;SDS011;6073;53.230;10.444;2023-08-01T10:51:44;2.45;;;1.50;;
12024;SDS011;6073;53.230;10.444;2023-08-01T10:54:20;2.90;;;1.65;;
12024;SDS011;6073;53.230;10.444;2023-08-01T10:56:48;2.80;;;1.35;;
12024;SDS011;6073;53.230;10.444;2023-08-01T10:59:14;2.25;;;1.25;;
12024;SDS011;6073;53.230;10.444;2023-08-01T11:01:58;1.95;;;1.50;;
12024;SDS011;6073;53.230;10.444;2023-08-01T11:04:27;5.97;;;1.67;;
12024;SDS011;6073;53.230;10.444;2023-08-01T11:06:53;2.70;;;1.50;;
12024;SDS011;6073;53.230;10.444;2023-08-01T11:09:24;2.80;;;1.80;;
12024;SDS011;6073;53.230;10.444;2023-08-01T11:11:51;3.65;;;1.60;;
12024;SDS011;6073;53.230;10.444;2023-08-01T11:14:19;1.95;;;1.38;;
12024;SDS011;6073;53.230;10.444;2023-08-01T11:16:47;4.45;;;1.75;;
12024;SDS011;6073;53.230;10.444;2023-08-01T11:19:20;1.85;;;1.25;;
12024;SDS011;6073;53.230;10.444;2023-08-01T11:21:51;2.17;;;1.50;;
12024;SDS011;6073;53.230;10.444;2023-08-01T11:24:18;1.90;;;1.42;;
12024;SDS011;6073;53.230;10.444;2023-08-01T11:26:45;2.03;;;1.55;;
12024;SDS011;6073;53.230;10.444;2023-08-01T11:29:12;2.78;;;1.40;;
12024;SDS011;6073;53.230;10.444;2023-08-01T11:31:39;1.55;;;1.20;;
12024;SDS011;6073;53.230;10.444;2023-08-01T11:34:06;2.42;;;1.60;;
12024;SDS011;6073;53.230;10.444;2023-08-01T11:36:34;1.35;;;1.25;;
12024;SDS011;6073;53.230;10.444;2023-08-01T11:39:00;1.60;;;1.40;;
12024;SDS011;6073;53.230;10.444;2023-08-01T11:41:26;1.42;;;1.20;;
12024;SDS011;6073;53.230;10.444;2023-08-01T11:43:52;1.80;;;1.20;;
12024;SDS011;6073;53.230;10.444;2023-08-01T11:46:19;2.25;;;1.23;;
12024;SDS011;6073;53.230;10.444;2023-08-01T11:48:46;1.30;;;1.20;;
12024;SDS011;6073;53.230;10.444;2023-08-01T11:51:12;2.00;;;1.20;;
12024;SDS011;6073;53.230;10.444;2023-08-01T11:53:38;1.83;;;1.50;;
12024;SDS011;6073;53.230;10.444;2023-08-01T11:56:04;1.98;;;1.80;;
12024;SDS011;6073;53.230;10.444;2023-08-01T12:01:05;2.60;;;1.30;;
12024;SDS011;6073;53.230;10.444;2023-08-01T12:03:41;4.65;;;1.50;;
12024;SDS011;6073;53.230;10.444;2023-08-01T12:06:10;4.70;;;1.50;;
12024;SDS011;6073;53.230;10.444;2023-08-01T12:08:38;3.55;;;1.40;;
12024;SDS011;6073;53.230;10.444;2023-08-01T12:11:04;3.58;;;1.70;;
12024;SDS011;6073;53.230;10.444;2023-08-01T12:13:29;3.15;;;1.50;;
12024;SDS011;6073;53.230;10.444;2023-08-01T12:15:56;3.30;;;1.63;;
12024;SDS011;6073;53.230;10.444;2023-08-01T12:18:26;1.98;;;1.33;;
12024;SDS011;6073;53.230;10.444;2023-08-01T12:20:53;2.42;;;1.55;;
12024;SDS011;6073;53.230;10.444;2023-08-01T12:23:19;2.33;;;1.65;;
12024;SDS011;6073;53.230;10.444;2023-08-01T12:25:48;2.67;;;1.27;;
12024;SDS011;6073;53.230;10.444;2023-08-01T12:28:14;5.63;;;2.50;;
12024;SDS011;6073;53.230;10.444;2023-08-01T12:30:40;2.38;;;1.65;;
12024;SDS011;6073;53.230;10.444;2023-08-01T12:33:07;2.47;;;1.60;;
12024;SDS011;6073;53.230;10.444;2023-08-01T12:35:33;2.30;;;1.33;;
12024;SDS011;6073;53.230;10.444;2023-08-01T12:37:58;1.50;;;1.40;;
12024;SDS011;6073;53.230;10.444;2023-08-01T12:40:24;3.08;;;1.50;;
12024;SDS011;6073;53.230;10.444;2023-08-01T12:42:49;3.35;;;1.50;;
12024;SDS011;6073;53.230;10.444;2023-08-01T12:45:15;2.65;;;1.42;;
12024;SDS011;6073;53.230;10.444;2023-08-01T12:47:41;2.60;;;1.45;;
12024;SDS011;6073;53.230;10.444;2023-08-01T12:50:07;1.50;;;1.40;;
12024;SDS011;6073;53.230;10.444;2023-08-01T12:52:32;3.05;;;1.70;;
12024;SDS011;6073;53.230;10.444;2023-08-01T12:54:58;4.35;;;2.10;;
12024;SDS011;6073;53.230;10.444;2023-08-01T12:57:25;4.22;;;1.70;;
12024;SDS011;6073;53.230;10.444;2023-08-01T12:59:50;3.30;;;1.80;;
12024;SDS011;6073;53.230;10.444;2023-08-01T13:02:16;2.55;;;1.60;;
12024;SDS011;6073;53.230;10.444;2023-08-01T13:04:42;1.88;;;1.30;;
12024;SDS011;6073;53.230;10.444;2023-08-01T13:07:07;2.92;;;1.85;;
12024;SDS011;6073;53.230;10.444;2023-08-01T13:09:33;3.47;;;1.77;;
12024;SDS011;6073;53.230;10.444;2023-08-01T13:11:59;3.78;;;1.63;;
12024;SDS011;6073;53.230;10.444;2023-08-01T13:14:25;1.77;;;1.67;;
12024;SDS011;6073;53.230;10.444;2023-08-01T13:16:50;2.22;;;1.52;;
12024;SDS011;6073;53.230;10.444;2023-08-01T13:19:16;1.90;;;1.63;;
12024;SDS011;6073;53.230;10.444;2023-08-01T13:21:42;3.33;;;1.73;;
12024;SDS011;6073;53.230;10.444;2023-08-01T13:24:08;3.38;;;2.05;;
12024;SDS011;6073;53.230;10.444;2023-08-01T13:26:33;3.50;;;1.40;;
12024;SDS011;6073;53.230;10.444;2023-08-01T13:28:59;3.85;;;1.80;;
12024;SDS011;6073;53.230;10.444;2023-08-01T13:31:25;3.35;;;2.15;;
12024;SDS011;6073;53.230;10.444;2023-08-01T13:33:51;3.28;;;2.00;;
12024;SDS011;6073;53.230;10.444;2023-08-01T13:36:17;2.03;;;1.80;;
12024;SDS011;6073;53.230;10.444;2023-08-01T13:38:43;1.85;;;1.50;;
12024;SDS011;6073;53.230;10.444;2023-08-01T13:41:09;2.85;;;1.73;;
12024;SDS011;6073;53.230;10.444;2023-08-01T13:43:35;2.60;;;1.85;;
12024;SDS011;6073;53.230;10.444;2023-08-01T13:46:00;3.58;;;1.58;;
12024;SDS011;6073;53.230;10.444;2023-08-01T13:48:26;3.85;;;1.75;;
12024;SDS011;6073;53.230;10.444;2023-08-01T13:50:52;2.05;;;1.75;;
12024;SDS011;6073;53.230;10.444;2023-08-01T13:53:18;2.40;;;2.08;;
12024;SDS011;6073;53.230;10.444;2023-08-01T13:55:43;3.30;;;2.05;;
12024;SDS011;6073;53.230;10.444;2023-08-01T13:58:09;2.92;;;1.92;;
12024;SDS011;6073;53.230;10.444;2023-08-01T14:00:34;2.40;;;2.20;;
12024;SDS011;6073;53.230;10.444;2023-08-01T14:03:00;2.58;;;1.80;;
12024;SDS011;6073;53.230;10.444;2023-08-01T14:05:26;3.00;;;1.85;;
12024;SDS011;6073;53.230;10.444;2023-08-01T14:07:52;3.25;;;1.80;;
12024;SDS011;6073;53.230;10.444;2023-08-01T14:10:18;4.68;;;2.10;;
12024;SDS011;6073;53.230;10.444;2023-08-01T14:12:44;1.70;;;1.60;;
12024;SDS011;6073;53.230;10.444;2023-08-01T14:15:10;4.78;;;1.60;;
12024;SDS011;6073;53.230;10.444;2023-08-01T14:17:36;1.50;;;1.30;;
12024;SDS011;6073;53.230;10.444;2023-08-01T14:20:03;1.50;;;1.40;;
12024;SDS011;6073;53.230;10.444;2023-08-01T14:22:32;3.55;;;1.70;;
12024;SDS011;6073;53.230;10.444;2023-08-01T14:24:58;3.28;;;1.67;;
12024;SDS011;6073;53.230;10.444;2023-08-01T14:27:23;2.33;;;1.40;;
12024;SDS011;6073;53.230;10.444;2023-08-01T14:29:49;2.72;;;1.50;;
12024;SDS011;6073;53.230;10.444;2023-08-01T14:32:18;1.63;;;1.20;;
12024;SDS011;6073;53.230;10.444;2023-08-01T14:34:44;1.38;;;1.00;;
12024;SDS011;6073;53.230;10.444;2023-08-01T14:37:10;2.67;;;1.15;;
12024;SDS011;6073;53.230;10.444;2023-08-01T14:39:35;2.58;;;1.20;;
12024;SDS011;6073;53.230;10.444;2023-08-01T14:42:01;1.50;;;1.17;;
12024;SDS011;6073;53.230;10.444;2023-08-01T14:44:26;1.95;;;1.50;;
12024;SDS011;6073;53.230;10.444;2023-08-01T14:46:52;1.08;;;1.00;;
12024;SDS011;6073;53.230;10.444;2023-08-01T14:49:19;3.88;;;1.38;;
12024;SDS011;6073;53.230;10.444;2023-08-01T14:51:46;1.73;;;1.23;;
12024;SDS011;6073;53.230;10.444;2023-08-01T14:54:12;1.25;;;1.17;;